sensor_id;sensor_type;location;lat;lon;timestamp;P1;durP1;ratioP1;P2;durP2;ratioP2
14153;SDS011;7157;53.144;7.570;2022-07-06T00:10:00;6.25;;;1.27;;
14153;SDS011;7157;53.144;7.570;2022-07-06T00:20:05;6.93;;;1.33;;
14153;SDS011;7157;53.144;7.570;2022-07-06T00:30:08;6.13;;;1.27;;
14153;SDS011;7157;53.144;7.570;2022-07-06T00:40:12;5.00;;;1.33;;
14153;SDS011;7157;53.144;7.570;2022-07-06T00:50:16;3.78;;;1.30;;
14153;SDS011;7157;53.144;7.570;2022-07-06T01:00:24;10.70;;;2.53;;
14153;SDS011;7157;53.144;7.570;2022-07-06T01:10:28;4.88;;;1.70;;
14153;SDS011;7157;53.144;7.570;2022-07-06T01:20:32;4.70;;;1.73;;
14153;SDS011;7157;53.144;7.570;2022-07-06T01:30:35;8.43;;;2.20;;
14153;SDS011;7157;53.144;7.570;2022-07-06T01:40:39;8.52;;;1.95;;
14153;SDS011;7157;53.144;7.570;2022-07-06T01:50:41;5.40;;;1.80;;
14153;SDS011;7157;53.144;7.570;2022-07-06T02:00:45;6.35;;;1.63;;
14153;SDS011;7157;53.144;7.570;2022-07-06T02:10:48;6.72;;;1.50;;
14153;SDS011;7157;53.144;7.570;2022-07-06T02:20:52;3.70;;;1.70;;
14153;SDS011;7157;53.144;7.570;2022-07-06T02:30:55;4.10;;;1.30;;
14153;SDS011;7157;53.144;7.570;2022-07-06T02:40:59;6.43;;;1.50;;
14153;SDS011;7157;53.144;7.570;2022-07-06T02:51:02;4.05;;;1.35;;
14153;SDS011;7157;53.144;7.570;2022-07-06T03:01:06;5.50;;;1.08;;
14153;SDS011;7157;53.144;7.570;2022-07-06T03:11:09;3.78;;;1.10;;
14153;SDS011;7157;53.144;7.570;2022-07-06T03:21:13;7.82;;;1.00;;
14153;SDS011;7157;53.144;7.570;2022-07-06T03:31:15;3.05;;;0.90;;
14153;SDS011;7157;53.144;7.570;2022-07-06T03:41:20;2.00;;;0.90;;
14153;SDS011;7157;53.144;7.570;2022-07-06T03:51:22;3.88;;;0.90;;
14153;SDS011;7157;53.144;7.570;2022-07-06T04:01:26;3.58;;;0.90;;
14153;SDS011;7157;53.144;7.570;2022-07-06T04:11:29;3.63;;;1.10;;
14153;SDS011;7157;53.144;7.570;2022-07-06T04:21:33;3.35;;;0.85;;
14153;SDS011;7157;53.144;7.570;2022-07-06T04:31:36;5.35;;;1.40;;
14153;SDS011;7157;53.144;7.570;2022-07-06T04:41:40;4.18;;;1.23;;
14153;SDS011;7157;53.144;7.570;2022-07-06T04:51:43;4.88;;;1.15;;
14153;SDS011;7157;53.144;7.570;2022-07-06T05:01:47;4.82;;;1.10;;
14153;SDS011;7157;53.144;7.570;2022-07-06T05:11:50;6.20;;;1.33;;
14153;SDS011;7157;53.144;7.570;2022-07-06T05:21:54;3.92;;;1.30;;
14153;SDS011;7157;53.144;7.570;2022-07-06T05:31:57;4.45;;;0.90;;
14153;SDS011;7157;53.144;7.570;2022-07-06T05:42:01;6.05;;;0.93;;
14153;SDS011;7157;53.144;7.570;2022-07-06T05:52:04;6.22;;;0.80;;
14153;SDS011;7157;53.144;7.570;2022-07-06T06:02:08;8.30;;;1.27;;
14153;SDS011;7157;53.144;7.570;2022-07-06T06:12:11;2.83;;;0.77;;
14153;SDS011;7157;53.144;7.570;2022-07-06T06:22:15;3.60;;;0.68;;
14153;SDS011;7157;53.144;7.570;2022-07-06T06:32:18;4.45;;;0.90;;
14153;SDS011;7157;53.144;7.570;2022-07-06T06:42:22;4.57;;;0.98;;
14153;SDS011;7157;53.144;7.570;2022-07-06T06:52:24;5.47;;;1.02;;
14153;SDS011;7157;53.144;7.570;2022-07-06T07:02:44;4.70;;;0.60;;
14153;SDS011;7157;53.144;7.570;2022-07-06T07:12:48;4.18;;;0.60;;
14153;SDS011;7157;53.144;7.570;2022-07-06T07:22:51;2.47;;;0.70;;
14153;SDS011;7157;53.144;7.570;2022-07-06T07:32:54;1.65;;;0.57;;
14153;SDS011;7157;53.144;7.570;2022-07-06T07:42:58;1.85;;;0.65;;
14153;SDS011;7157;53.144;7.570;2022-07-06T07:53:01;2.13;;;0.70;;
14153;SDS011;7157;53.144;7.570;2022-07-06T08:03:05;4.43;;;0.70;;
14153;SDS011;7157;53.144;7.570;2022-07-06T08:13:08;6.03;;;0.60;;
14153;SDS011;7157;53.144;7.570;2022-07-06T08:23:13;3.20;;;0.50;;
14153;SDS011;7157;53.144;7.570;2022-07-06T08:33:15;1.52;;;0.50;;
14153;SDS011;7157;53.144;7.570;2022-07-06T08:43:19;2.72;;;0.50;;
14153;SDS011;7157;53.144;7.570;2022-07-06T08:53:23;1.48;;;0.38;;
14153;SDS011;7157;53.144;7.570;2022-07-06T09:03:29;2.58;;;0.65;;
14153;SDS011;7157;53.144;7.570;2022-07-06T09:13:32;2.65;;;0.82;;
14153;SDS011;7157;53.144;7.570;2022-07-06T09:23:36;1.40;;;0.50;;
14153;SDS011;7157;53.144;7.570;2022-07-06T09:33:41;2.20;;;0.80;;
14153;SDS011;7157;53.144;7.570;2022-07-06T09:43:57;1.15;;;0.60;;
14153;SDS011;7157;53.144;7.570;2022-07-06T09:53:59;1.42;;;0.60;;
14153;SDS011;7157;53.144;7.570;2022-07-06T10:04:04;1.52;;;0.60;;
14153;SDS011;7157;53.144;7.570;2022-07-06T10:14:08;2.03;;;0.60;;
14153;SDS011;7157;53.144;7.570;2022-07-06T10:24:13;1.48;;;0.50;;
14153;SDS011;7157;53.144;7.570;2022-07-06T10:34:17;1.95;;;0.50;;
14153;SDS011;7157;53.144;7.570;2022-07-06T10:44:23;6.10;;;0.60;;
14153;SDS011;7157;53.144;7.570;2022-07-06T10:54:27;3.20;;;0.47;;
14153;SDS011;7157;53.144;7.570;2022-07-06T11:04:43;0.65;;;0.40;;
14153;SDS011;7157;53.144;7.570;2022-07-06T11:14:48;4.93;;;1.00;;
14153;SDS011;7157;53.144;7.570;2022-07-06T11:24:53;4.13;;;0.77;;
14153;SDS011;7157;53.144;7.570;2022-07-06T11:34:57;1.77;;;0.57;;
14153;SDS011;7157;53.144;7.570;2022-07-06T11:45:01;6.95;;;0.80;;
14153;SDS011;7157;53.144;7.570;2022-07-06T11:55:04;3.80;;;1.00;;
14153;SDS011;7157;53.144;7.570;2022-07-06T12:05:09;3.65;;;0.60;;
14153;SDS011;7157;53.144;7.570;2022-07-06T12:15:12;2.33;;;0.60;;
14153;SDS011;7157;53.144;7.570;2022-07-06T12:25:29;1.73;;;0.50;;
14153;SDS011;7157;53.144;7.570;2022-07-06T12:35:33;3.17;;;0.70;;
14153;SDS011;7157;53.144;7.570;2022-07-06T12:45:38;6.75;;;0.98;;
14153;SDS011;7157;53.144;7.570;2022-07-06T12:55:40;3.65;;;0.68;;
14153;SDS011;7157;53.144;7.570;2022-07-06T13:05:49;6.72;;;0.90;;
14153;SDS011;7157;53.144;7.570;2022-07-06T13:15:52;5.93;;;0.82;;
14153;SDS011;7157;53.144;7.570;2022-07-06T13:25:56;5.43;;;1.20;;
14153;SDS011;7157;53.144;7.570;2022-07-06T13:36:00;4.43;;;0.85;;
14153;SDS011;7157;53.144;7.570;2022-07-06T13:46:04;2.35;;;0.70;;
14153;SDS011;7157;53.144;7.570;2022-07-06T13:56:08;4.75;;;0.75;;
14153;SDS011;7157;53.144;7.570;2022-07-06T14:06:12;2.13;;;0.68;;
14153;SDS011;7157;53.144;7.570;2022-07-06T14:16:17;1.83;;;0.68;;
14153;SDS011;7157;53.144;7.570;2022-07-06T14:26:21;3.00;;;0.65;;
14153;SDS011;7157;53.144;7.570;2022-07-06T14:36:24;2.20;;;0.70;;
14153;SDS011;7157;53.144;7.570;2022-07-06T14:46:28;1.55;;;0.60;;
14153;SDS011;7157;53.144;7.570;2022-07-06T14:56:31;5.80;;;0.80;;
14153;SDS011;7157;53.144;7.570;2022-07-06T15:06:35;2.90;;;0.85;;
14153;SDS011;7157;53.144;7.570;2022-07-06T15:16:55;6.53;;;1.30;;
14153;SDS011;7157;53.144;7.570;2022-07-06T15:27:02;6.10;;;2.20;;
14153;SDS011;7157;53.144;7.570;2022-07-06T15:37:05;11.55;;;3.08;;
14153;SDS011;7157;53.144;7.570;2022-07-06T15:47:09;7.15;;;1.63;;
14153;SDS011;7157;53.144;7.570;2022-07-06T15:57:14;3.25;;;1.15;;
14153;SDS011;7157;53.144;7.570;2022-07-06T16:07:18;2.35;;;1.02;;
14153;SDS011;7157;53.144;7.570;2022-07-06T16:17:41;5.07;;;1.00;;
14153;SDS011;7157;53.144;7.570;2022-07-06T16:27:46;2.55;;;0.80;;
14153;SDS011;7157;53.144;7.570;2022-07-06T16:37:50;5.07;;;0.90;;
14153;SDS011;7157;53.144;7.570;2022-07-06T16:47:55;7.80;;;0.93;;
14153;SDS011;7157;53.144;7.570;2022-07-06T16:57:59;5.05;;;0.90;;
14153;SDS011;7157;53.144;7.570;2022-07-06T17:08:03;4.65;;;1.67;;
14153;SDS011;7157;53.144;7.570;2022-07-06T17:18:06;3.30;;;1.60;;
14153;SDS011;7157;53.144;7.570;2022-07-06T17:28:10;2.10;;;0.93;;
14153;SDS011;7157;53.144;7.570;2022-07-06T17:38:13;2.40;;;1.25;;
14153;SDS011;7157;53.144;7.570;2022-07-06T17:48:18;3.47;;;1.17;;
14153;SDS011;7157;53.144;7.570;2022-07-06T17:58:21;4.00;;;1.35;;
14153;SDS011;7157;53.144;7.570;2022-07-06T18:08:25;2.90;;;1.50;;
14153;SDS011;7157;53.144;7.570;2022-07-06T18:18:28;5.85;;;1.58;;
14153;SDS011;7157;53.144;7.570;2022-07-06T18:28:32;4.20;;;1.98;;
14153;SDS011;7157;53.144;7.570;2022-07-06T18:38:35;2.70;;;1.30;;
14153;SDS011;7157;53.144;7.570;2022-07-06T18:48:39;6.00;;;2.00;;
14153;SDS011;7157;53.144;7.570;2022-07-06T18:58:42;5.28;;;2.08;;
14153;SDS011;7157;53.144;7.570;2022-07-06T19:08:46;5.88;;;2.13;;
14153;SDS011;7157;53.144;7.570;2022-07-06T19:18:49;9.88;;;2.33;;
14153;SDS011;7157;53.144;7.570;2022-07-06T19:28:53;4.20;;;2.33;;
14153;SDS011;7157;53.144;7.570;2022-07-06T19:38:56;6.15;;;2.63;;
14153;SDS011;7157;53.144;7.570;2022-07-06T19:49:00;5.75;;;2.88;;
14153;SDS011;7157;53.144;7.570;2022-07-06T19:59:03;4.88;;;3.03;;
14153;SDS011;7157;53.144;7.570;2022-07-06T20:09:07;7.70;;;3.25;;
14153;SDS011;7157;53.144;7.570;2022-07-06T20:19:10;5.65;;;3.92;;
14153;SDS011;7157;53.144;7.570;2022-07-06T20:29:18;7.22;;;4.20;;
14153;SDS011;7157;53.144;7.570;2022-07-06T20:39:20;10.73;;;4.78;;
14153;SDS011;7157;53.144;7.570;2022-07-06T20:49:25;18.25;;;7.43;;
14153;SDS011;7157;53.144;7.570;2022-07-06T20:59:27;12.10;;;5.35;;
14153;SDS011;7157;53.144;7.570;2022-07-06T21:09:32;13.70;;;6.53;;
14153;SDS011;7157;53.144;7.570;2022-07-06T21:19:34;14.30;;;7.03;;
14153;SDS011;7157;53.144;7.570;2022-07-06T21:29:38;11.80;;;6.90;;
14153;SDS011;7157;53.144;7.570;2022-07-06T21:39:41;16.23;;;6.95;;
14153;SDS011;7157;53.144;7.570;2022-07-06T21:49:46;15.38;;;7.82;;
14153;SDS011;7157;53.144;7.570;2022-07-06T21:59:48;17.70;;;7.88;;
14153;SDS011;7157;53.144;7.570;2022-07-06T22:09:52;15.02;;;7.53;;
14153;SDS011;7157;53.144;7.570;2022-07-06T22:19:55;15.43;;;7.93;;
14153;SDS011;7157;53.144;7.570;2022-07-06T22:30:01;16.13;;;8.60;;
14153;SDS011;7157;53.144;7.570;2022-07-06T22:40:05;24.27;;;8.60;;
14153;SDS011;7157;53.144;7.570;2022-07-06T22:50:26;20.50;;;8.82;;
14153;SDS011;7157;53.144;7.570;2022-07-06T23:00:29;19.50;;;9.18;;
14153;SDS011;7157;53.144;7.570;2022-07-06T23:10:33;17.15;;;8.73;;
14153;SDS011;7157;53.144;7.570;2022-07-06T23:20:36;21.80;;;9.38;;
14153;SDS011;7157;53.144;7.570;2022-07-06T23:30:40;19.40;;;9.68;;
14153;SDS011;7157;53.144;7.570;2022-07-06T23:40:42;17.42;;;9.15;;
14153;SDS011;7157;53.144;7.570;2022-07-06T23:50:47;18.63;;;8.88;;
